Main page
METAR-TAF:

METAR-TAF

Airports :

Andrés Sabella Gálvez International Airport

Antofagasta, Chile

latitude: 23-26S, longitude: 070-26W, elevation: 135 m

Current weather observation

The report was made 19 minutes ago, at 21:00 UTC
Wind 11 kt from the South
Temperature 21°C
Humidity 73%
Pressure 1009 hPa
Visibility 10 km or more
Few clouds at a height of 2800 ft

METAR: SCFA 252100Z 19011KT 9999 FEW028 21/16 Q1009 NOSIG

Time: 18:19 (21:19 UTC)

Forecast

The report was made 4 hours and 59 minutes ago, at 16:20 UTC
Forecast valid from 25 at 18 UTC to 26 at 18 UTC
Wind 14 kt from the South
Visibility 10 km or more
no clouds below 1500 m and no cumulonimbus
Becoming
from 26 at 00 UTC to 26 at 02 UTC
Wind 4 kt from the South
Becoming
from 26 at 04 UTC to 26 at 06 UTC
Wind 4 kt from the North/Northeast
Becoming
from 26 at 15 UTC to 26 at 17 UTC
Wind 12 kt from the South/Southwest

TAF: SCFA 251620Z 2518/2618 19014KT CAVOK TX22/2518Z TN17/2608Z BECMG 2600/2602 17004KT BECMG 2604/2606 03004KT BECMG 2615/2617 20012KT

Weather observations and forecasts of more than 4000 airports (METAR and TAF reports).

The available stations are represented by yellow and red dots on the map.

Hover mouse over dot to see the name of the station.

Then click to see weather observations and forecasts.

To change the map : click on the green buttons with a black cross to zoom in, on the green button with a dash to zoom out, or on the green arrows for adjacent maps.


METAR-TAF: